MDE weather

Jose Maria Córdova International Airport
Medellín, Antioquía Department, Colombia

Public forecast

Using degrees Celsius for public forecast. Weather courtesy of forecast.io.

Current aviation weather report (METAR) for Jose Maria Córdova International Airport

Retrieved 2019/10/19 01:00 UTC (29 minutes ago):

SKRG 190100Z VRB02KT 9999 SCT015 SCT080 16/16 A3029 NOSIG

Aviation forecast (TAF) for Jose Maria Córdova International Airport

Retrieved 2019-10-19 00:30 UTC (59 minutes ago):

TAF SKRG 182230Z 1900/1924 VRB02KT 9999 SCT017 SCT080 TEMPO 1900/1904 5000 TSRA SCT015CB SCT020 TEMPO 1908/1912 4000 DZ BR BKN008 BECMG 1914/1916 09010KT TEMPO 1919/1922 TS SCT015CB TX22/1919Z TN12/1911Z